createdAt,value
2023-05-12T00:01:34.662Z,0.70
2023-05-12T00:04:04.093Z,0.70
2023-05-12T00:06:32.324Z,1.10
2023-05-12T00:09:00.248Z,1.00
2023-05-12T00:11:28.265Z,1.00
2023-05-12T00:13:56.382Z,0.80
2023-05-12T00:16:24.414Z,0.97
2023-05-12T00:18:52.672Z,0.87
2023-05-12T00:21:22.166Z,0.70
2023-05-12T00:23:50.129Z,0.80
2023-05-12T00:26:18.054Z,0.97
2023-05-12T00:28:47.625Z,0.80
2023-05-12T00:31:15.640Z,0.80
2023-05-12T00:33:43.696Z,1.10
2023-05-12T00:36:11.657Z,0.70
2023-05-12T00:38:41.512Z,0.70
2023-05-12T00:41:09.483Z,0.80
2023-05-12T00:43:37.455Z,1.07
2023-05-12T00:46:06.595Z,0.90
2023-05-12T00:48:34.954Z,0.73
2023-05-12T00:51:06.367Z,1.00
2023-05-12T00:53:47.834Z,0.70
2023-05-12T00:56:18.677Z,0.87
2023-05-12T00:58:46.914Z,0.80
2023-05-12T01:01:14.916Z,0.87
2023-05-12T01:03:42.882Z,0.90
2023-05-12T01:06:13.793Z,0.97
2023-05-12T01:08:42.649Z,0.80
2023-05-12T01:11:10.686Z,0.70
2023-05-12T01:13:41.427Z,1.03
2023-05-12T01:16:10.740Z,0.80
2023-05-12T01:18:39.467Z,0.83
2023-05-12T01:21:07.834Z,0.87
2023-05-12T01:23:36.683Z,0.80
2023-05-12T01:26:08.143Z,0.70
2023-05-12T01:28:36.470Z,0.70
2023-05-12T01:31:05.041Z,0.80
2023-05-12T01:33:33.924Z,1.10
2023-05-12T01:36:01.861Z,0.90
2023-05-12T01:38:29.798Z,0.70
2023-05-12T01:40:57.714Z,0.97
2023-05-12T01:43:27.192Z,1.20
2023-05-12T01:45:55.131Z,1.00
2023-05-12T01:48:23.015Z,0.83
2023-05-12T01:50:51.157Z,0.80
2023-05-12T01:53:19.349Z,0.70
2023-05-12T01:55:47.397Z,0.90
2023-05-12T01:58:15.403Z,0.97
2023-05-12T02:00:44.777Z,1.30
2023-05-12T02:03:12.871Z,0.90
2023-05-12T02:05:40.831Z,0.93
2023-05-12T02:08:08.693Z,0.90
2023-05-12T02:10:36.629Z,1.23
2023-05-12T02:13:04.666Z,0.90
2023-05-12T02:15:32.742Z,1.13
2023-05-12T02:18:03.838Z,1.10
2023-05-12T02:20:31.786Z,1.00
2023-05-12T02:22:59.644Z,0.97
2023-05-12T02:25:27.602Z,1.37
2023-05-12T02:27:55.461Z,1.00
2023-05-12T02:30:23.410Z,1.00
2023-05-12T02:32:51.347Z,0.80
2023-05-12T02:35:21.571Z,1.10
2023-05-12T02:37:49.485Z,1.10
2023-05-12T02:40:17.631Z,1.20
2023-05-12T02:42:45.738Z,0.90
2023-05-12T02:45:13.978Z,1.20
2023-05-12T02:47:41.972Z,0.90
2023-05-12T02:50:10.422Z,1.30
2023-05-12T02:52:39.726Z,0.90
2023-05-12T02:55:07.830Z,0.90
2023-05-12T02:57:35.758Z,0.80
2023-05-12T03:00:05.951Z,1.00
2023-05-12T03:02:33.972Z,0.80
2023-05-12T03:05:02.124Z,0.83
2023-05-12T03:07:30.329Z,1.20
2023-05-12T03:10:00.232Z,1.00
2023-05-12T03:12:29.419Z,1.10
2023-05-12T03:14:57.449Z,1.17
2023-05-12T03:17:25.429Z,1.17
2023-05-12T03:19:53.422Z,0.93
2023-05-12T03:22:21.342Z,1.10
2023-05-12T03:24:49.257Z,0.90
2023-05-12T03:27:18.544Z,1.10
2023-05-12T03:29:46.446Z,0.90
2023-05-12T03:32:14.408Z,0.80
2023-05-12T03:34:42.382Z,0.97
2023-05-12T03:37:10.310Z,1.30
2023-05-12T03:39:38.229Z,1.00
2023-05-12T03:42:06.520Z,1.30
2023-05-12T03:44:35.836Z,0.90
2023-05-12T03:47:03.841Z,1.37
2023-05-12T03:49:31.796Z,1.23
2023-05-12T03:51:59.711Z,1.00
2023-05-12T03:54:27.695Z,1.50
2023-05-12T03:56:55.620Z,1.33
2023-05-12T03:59:23.520Z,0.80
2023-05-12T04:01:53.538Z,1.30
2023-05-12T04:04:21.698Z,1.20
2023-05-12T04:06:50.189Z,1.17
2023-05-12T04:09:18.296Z,1.00
2023-05-12T04:11:46.339Z,1.40
2023-05-12T04:14:14.324Z,1.17
2023-05-12T04:16:42.250Z,1.30
2023-05-12T04:19:11.661Z,1.50
2023-05-12T04:21:39.851Z,1.33
2023-05-12T04:24:08.098Z,1.17
2023-05-12T04:26:36.168Z,1.37
2023-05-12T04:29:06.001Z,1.10
2023-05-12T04:31:33.925Z,1.30
2023-05-12T04:34:01.867Z,1.47
2023-05-12T04:36:31.569Z,1.20
2023-05-12T04:38:59.446Z,1.40
2023-05-12T04:41:27.344Z,1.50
2023-05-12T04:46:26.267Z,1.60
2023-05-12T04:48:54.246Z,1.20
2023-05-12T04:51:22.223Z,1.60
2023-05-12T04:53:51.502Z,1.40
2023-05-12T04:56:19.511Z,1.50
2023-05-12T04:58:47.468Z,1.40
2023-05-12T05:01:15.437Z,1.30
2023-05-12T05:03:43.556Z,1.30
2023-05-12T05:06:11.623Z,1.27
2023-05-12T05:08:39.547Z,1.30
2023-05-12T05:11:08.886Z,1.20
2023-05-12T05:13:36.807Z,1.57
2023-05-12T05:16:04.841Z,1.33
2023-05-12T05:18:32.843Z,1.20
2023-05-12T05:21:01.005Z,1.57
2023-05-12T05:23:28.971Z,1.50
2023-05-12T05:25:56.841Z,1.60
2023-05-12T05:28:26.830Z,1.50
2023-05-12T05:30:54.738Z,1.37
2023-05-12T05:33:22.637Z,1.67
2023-05-12T05:35:50.702Z,1.53
2023-05-12T05:38:18.666Z,1.70
2023-05-12T05:40:52.925Z,2.07
2023-05-12T05:43:21.971Z,1.40
2023-05-12T05:45:51.617Z,1.40
2023-05-12T05:48:19.556Z,1.57
2023-05-12T05:50:47.503Z,1.63
2023-05-12T05:53:15.657Z,1.20
2023-05-12T05:55:43.656Z,1.20
2023-05-12T05:58:11.667Z,1.40
2023-05-12T06:00:39.574Z,1.20
2023-05-12T06:03:09.037Z,1.20
2023-05-12T06:05:37.290Z,1.83
2023-05-12T06:08:09.235Z,1.10
2023-05-12T06:10:37.600Z,1.20
2023-05-12T06:13:05.815Z,1.23
2023-05-12T06:15:33.838Z,1.47
2023-05-12T06:18:01.971Z,1.20
2023-05-12T06:20:31.434Z,1.53
2023-05-12T06:22:59.384Z,1.37
2023-05-12T06:25:27.675Z,1.07
2023-05-12T06:27:55.692Z,1.10
2023-05-12T06:30:24.043Z,0.90
2023-05-12T06:32:52.150Z,0.93
2023-05-12T06:35:20.358Z,1.10
2023-05-12T06:37:51.238Z,1.20
2023-05-12T06:40:19.380Z,1.47
2023-05-12T06:42:47.455Z,1.40
2023-05-12T06:45:15.414Z,1.20
2023-05-12T06:47:43.468Z,1.30
2023-05-12T06:50:11.889Z,1.10
2023-05-12T06:52:39.892Z,1.10
2023-05-12T06:55:09.782Z,1.20
2023-05-12T06:57:37.783Z,1.30
2023-05-12T07:00:06.489Z,1.40
2023-05-12T07:02:35.167Z,1.27
2023-05-12T07:05:03.269Z,1.30
2023-05-12T07:07:31.398Z,1.30
2023-05-12T07:09:59.499Z,1.13
2023-05-12T07:12:28.900Z,1.30
2023-05-12T07:14:56.949Z,1.30
2023-05-12T07:17:25.026Z,1.13
2023-05-12T07:19:53.112Z,1.30
2023-05-12T07:22:21.196Z,1.10
2023-05-12T07:24:49.288Z,1.07
2023-05-12T07:27:17.956Z,1.17
2023-05-12T07:29:47.874Z,1.07
2023-05-12T07:32:19.016Z,1.30
2023-05-12T07:34:47.594Z,1.30
2023-05-12T07:37:15.804Z,1.50
2023-05-12T07:39:43.937Z,1.40
2023-05-12T07:42:11.968Z,1.47
2023-05-12T07:44:40.094Z,1.30
2023-05-12T07:47:12.988Z,1.50
2023-05-12T07:49:41.407Z,1.23
2023-05-12T07:52:09.770Z,1.10
2023-05-12T07:54:38.271Z,1.47
2023-05-12T07:57:06.336Z,1.37
2023-05-12T07:59:34.318Z,1.40
2023-05-12T08:02:02.403Z,1.33
2023-05-12T08:04:32.028Z,1.17
2023-05-12T08:07:00.236Z,1.83
2023-05-12T08:09:28.307Z,1.80
2023-05-12T08:11:56.347Z,1.57
2023-05-12T08:14:25.817Z,1.20
2023-05-12T08:16:53.834Z,1.30
2023-05-12T08:19:21.910Z,1.40
2023-05-12T08:21:51.649Z,0.97
2023-05-12T08:24:19.758Z,1.10
2023-05-12T08:26:47.903Z,1.40
2023-05-12T08:29:16.861Z,1.03
2023-05-12T08:31:44.997Z,1.00
2023-05-12T08:34:12.962Z,1.40
2023-05-12T08:36:40.973Z,1.37
2023-05-12T08:39:11.621Z,1.40
2023-05-12T08:41:43.686Z,1.00
2023-05-12T08:44:12.344Z,1.10
2023-05-12T08:46:40.363Z,1.30
2023-05-12T08:49:14.858Z,1.10
2023-05-12T08:51:48.095Z,1.30
2023-05-12T08:54:24.030Z,1.10
2023-05-12T08:59:24.589Z,1.20
2023-05-12T09:01:52.714Z,1.33
2023-05-12T09:04:20.660Z,1.67
2023-05-12T09:06:49.086Z,1.53
2023-05-12T09:09:17.923Z,1.17
2023-05-12T09:11:49.288Z,1.37
2023-05-12T09:14:19.395Z,1.10
2023-05-12T09:16:50.998Z,1.40
2023-05-12T09:19:20.884Z,1.40
2023-05-12T09:21:49.523Z,1.40
2023-05-12T09:24:17.949Z,1.37
2023-05-12T09:26:52.513Z,1.53
2023-05-12T09:29:29.977Z,1.57
2023-05-12T09:32:00.495Z,2.00
2023-05-12T09:34:29.383Z,1.43
2023-05-12T09:36:57.672Z,1.63
2023-05-12T09:39:26.012Z,1.57
2023-05-12T09:41:55.454Z,1.53
2023-05-12T09:44:24.620Z,1.53
2023-05-12T09:46:53.003Z,1.80
2023-05-12T09:49:21.277Z,1.50
2023-05-12T09:51:53.212Z,1.50
2023-05-12T09:54:28.488Z,1.40
2023-05-12T09:56:59.338Z,1.30
2023-05-12T09:59:28.732Z,1.40
2023-05-12T10:02:03.240Z,1.80
2023-05-12T10:04:33.729Z,1.47
2023-05-12T10:07:01.753Z,1.47
2023-05-12T10:09:34.195Z,1.40
2023-05-12T10:12:04.674Z,1.30
2023-05-12T10:14:32.839Z,1.30
2023-05-12T10:17:01.219Z,1.57
2023-05-12T10:19:29.967Z,1.50
2023-05-12T10:21:58.326Z,1.40
2023-05-12T10:24:27.777Z,1.77
2023-05-12T10:26:56.799Z,1.40
2023-05-12T10:29:30.333Z,1.50
2023-05-12T10:31:58.757Z,1.20
2023-05-12T10:34:31.222Z,1.60
2023-05-12T10:36:59.523Z,1.70
2023-05-12T10:39:29.425Z,1.10
2023-05-12T10:42:02.284Z,1.70
2023-05-12T10:44:31.845Z,1.40
2023-05-12T10:47:00.425Z,1.60
2023-05-12T10:49:35.043Z,1.07
2023-05-12T10:52:03.197Z,1.20
2023-05-12T10:54:31.352Z,1.40
2023-05-12T10:57:00.278Z,1.27
2023-05-12T10:59:28.857Z,1.10
2023-05-12T11:02:00.308Z,1.47
2023-05-12T11:04:41.471Z,1.57
2023-05-12T11:07:10.241Z,1.30
2023-05-12T11:09:46.908Z,1.20
2023-05-12T11:12:18.731Z,1.10
2023-05-12T11:14:50.109Z,1.60
2023-05-12T11:17:19.839Z,1.30
2023-05-12T11:19:48.986Z,1.70
2023-05-12T11:22:19.266Z,1.50
2023-05-12T11:24:47.435Z,1.87
2023-05-12T11:27:15.885Z,1.40
2023-05-12T11:29:44.250Z,1.67
2023-05-12T11:32:12.697Z,1.60
2023-05-12T11:34:42.029Z,2.10
2023-05-12T11:37:10.071Z,1.70
2023-05-12T11:39:38.018Z,1.23
2023-05-12T11:42:13.028Z,1.43
2023-05-12T11:44:47.842Z,1.33
2023-05-12T11:47:16.270Z,1.10
2023-05-12T11:49:49.142Z,1.23
2023-05-12T11:52:17.356Z,1.00
2023-05-12T11:54:49.615Z,1.40
2023-05-12T11:57:26.155Z,4.17
2023-05-12T11:59:58.182Z,2.00
2023-05-12T12:02:26.162Z,1.20
2023-05-12T12:04:55.687Z,1.30
2023-05-12T12:07:32.733Z,1.50
2023-05-12T12:10:01.027Z,1.40
2023-05-12T12:12:29.121Z,1.37
2023-05-12T12:15:00.398Z,1.20
2023-05-12T12:17:31.017Z,1.40
2023-05-12T12:20:00.524Z,1.50
2023-05-12T12:22:29.871Z,1.67
2023-05-12T12:24:57.872Z,2.07
2023-05-12T12:27:25.786Z,1.50
2023-05-12T12:29:53.744Z,1.90
2023-05-12T12:32:21.720Z,1.40
2023-05-12T12:34:49.666Z,1.50
2023-05-12T12:37:19.061Z,1.37
2023-05-12T12:39:47.979Z,1.53
2023-05-12T12:42:15.941Z,1.30
2023-05-12T12:44:44.076Z,1.10
2023-05-12T12:47:12.147Z,1.40
2023-05-12T12:49:40.252Z,1.00
2023-05-12T12:52:08.416Z,1.40
2023-05-12T12:54:37.762Z,1.40
2023-05-12T12:57:05.935Z,1.20
2023-05-12T12:59:34.059Z,1.83
2023-05-12T13:02:02.600Z,1.00
2023-05-12T13:04:30.742Z,1.10
2023-05-12T13:06:58.633Z,1.27
2023-05-12T13:09:26.574Z,1.20
2023-05-12T13:11:55.973Z,1.30
2023-05-12T13:14:24.479Z,1.37
2023-05-12T13:16:52.991Z,1.47
2023-05-12T13:19:21.855Z,1.60
2023-05-12T13:21:49.915Z,1.50
2023-05-12T13:24:17.879Z,1.30
2023-05-12T13:26:45.807Z,1.33
2023-05-12T13:29:15.126Z,1.10
2023-05-12T13:31:43.186Z,1.20
2023-05-12T13:34:11.254Z,1.10
2023-05-12T13:36:39.334Z,1.20
2023-05-12T13:39:07.344Z,0.90
2023-05-12T13:41:35.244Z,1.03
2023-05-12T13:44:03.422Z,1.20
2023-05-12T13:46:32.803Z,1.40
2023-05-12T13:49:00.972Z,1.30
2023-05-12T13:51:28.978Z,1.20
2023-05-12T13:53:57.126Z,1.20
2023-05-12T13:56:25.851Z,1.23
2023-05-12T13:58:53.852Z,1.33
2023-05-12T14:01:21.863Z,1.30
2023-05-12T14:03:51.258Z,1.20
2023-05-12T14:06:19.329Z,1.37
2023-05-12T14:08:47.605Z,1.00
2023-05-12T14:11:15.940Z,0.80
2023-05-12T14:13:43.898Z,1.13
2023-05-12T14:16:14.203Z,1.00
2023-05-12T14:18:45.091Z,1.20
2023-05-12T14:21:14.522Z,1.13
2023-05-12T14:23:42.489Z,1.00
2023-05-12T14:26:10.401Z,1.00
2023-05-12T14:28:39.021Z,1.20
2023-05-12T14:31:07.019Z,0.87
2023-05-12T14:33:34.935Z,1.07
2023-05-12T14:36:07.126Z,1.40
2023-05-12T14:38:37.101Z,1.27
2023-05-12T14:41:05.504Z,1.47
2023-05-12T14:43:33.404Z,1.57
2023-05-12T14:46:02.418Z,1.50
2023-05-12T14:48:30.624Z,1.40
2023-05-12T14:50:58.972Z,1.40
2023-05-12T14:53:26.970Z,1.27
2023-05-12T14:55:56.313Z,1.33
2023-05-12T14:58:24.475Z,1.50
2023-05-12T15:00:52.655Z,1.37
2023-05-12T15:03:21.329Z,1.33
2023-05-12T15:08:21.765Z,2.40
2023-05-12T15:10:49.941Z,2.00
2023-05-12T15:13:20.782Z,1.60
2023-05-12T15:15:49.385Z,1.60
2023-05-12T15:18:18.263Z,1.77
2023-05-12T15:20:47.532Z,1.70
2023-05-12T15:23:15.496Z,2.00
2023-05-12T15:25:43.479Z,1.80
2023-05-12T15:28:11.477Z,1.70
2023-05-12T15:30:40.863Z,2.03
2023-05-12T15:33:08.927Z,2.10
2023-05-12T15:35:37.084Z,2.47
2023-05-12T15:38:05.086Z,1.80
2023-05-12T15:40:33.038Z,1.90
2023-05-12T15:43:00.976Z,9.53
2023-05-12T15:45:28.994Z,2.43
2023-05-12T15:47:59.188Z,1.90
2023-05-12T15:50:27.150Z,2.00
2023-05-12T15:52:55.046Z,2.30
2023-05-12T15:55:23.422Z,1.77
2023-05-12T15:57:52.386Z,2.40
2023-05-12T16:00:22.784Z,2.50
2023-05-12T16:02:50.930Z,2.00
2023-05-12T16:05:20.607Z,2.30
2023-05-12T16:07:48.851Z,2.20
2023-05-12T16:10:17.651Z,2.10
2023-05-12T16:12:48.493Z,2.50
2023-05-12T16:15:20.903Z,6.50
2023-05-12T16:17:49.829Z,2.80
2023-05-12T16:20:21.598Z,2.70
2023-05-12T16:22:55.802Z,2.10
2023-05-12T16:25:25.300Z,2.30
2023-05-12T16:27:53.726Z,2.23
2023-05-12T16:30:27.256Z,2.00
2023-05-12T16:33:02.071Z,2.50
2023-05-12T16:35:31.619Z,2.83
2023-05-12T16:38:08.757Z,2.47
2023-05-12T16:40:38.364Z,2.43
2023-05-12T16:43:07.277Z,2.50
2023-05-12T16:45:42.084Z,2.30
2023-05-12T16:48:10.737Z,1.90
2023-05-12T16:50:45.453Z,1.70
2023-05-12T16:53:15.831Z,1.27
2023-05-12T16:55:44.549Z,1.00
2023-05-12T16:58:13.593Z,1.20
2023-05-12T17:00:50.040Z,1.53
2023-05-12T17:03:18.978Z,1.50
2023-05-12T17:05:47.941Z,1.43
2023-05-12T17:08:18.914Z,1.60
2023-05-12T17:10:47.819Z,1.80
2023-05-12T17:13:17.760Z,1.90
2023-05-12T17:15:46.690Z,2.30
2023-05-12T17:18:15.472Z,2.03
2023-05-12T17:23:32.248Z,2.47
2023-05-12T17:26:01.428Z,2.30
2023-05-12T17:28:30.857Z,2.70
2023-05-12T17:31:06.202Z,2.07
2023-05-12T17:33:36.350Z,2.30
2023-05-12T17:36:12.319Z,2.03
2023-05-12T17:38:44.323Z,2.10
2023-05-12T17:41:12.557Z,2.27
2023-05-12T17:43:41.595Z,1.97
2023-05-12T17:46:09.588Z,1.90
2023-05-12T17:48:38.900Z,2.03
2023-05-12T17:51:07.121Z,1.53
2023-05-12T17:53:35.099Z,1.83
2023-05-12T17:56:04.643Z,1.80
2023-05-12T17:58:32.583Z,2.10
2023-05-12T18:01:00.545Z,1.87
2023-05-12T18:03:28.647Z,1.40
2023-05-12T18:05:56.591Z,2.13
2023-05-12T18:08:24.541Z,1.87
2023-05-12T18:10:52.650Z,1.87
2023-05-12T18:13:22.000Z,1.47
2023-05-12T18:15:50.029Z,1.30
2023-05-12T18:18:18.004Z,1.50
2023-05-12T18:20:46.060Z,1.47
2023-05-12T18:23:14.025Z,1.40
2023-05-12T18:25:42.988Z,1.50
2023-05-12T18:28:10.989Z,1.53
2023-05-12T18:30:40.521Z,1.50
2023-05-12T18:33:08.555Z,1.60
2023-05-12T18:35:36.507Z,1.63
2023-05-12T18:38:04.447Z,1.97
2023-05-12T18:40:32.395Z,1.53
2023-05-12T18:43:00.902Z,1.60
2023-05-12T18:45:28.886Z,1.70
2023-05-12T18:47:58.373Z,1.60
2023-05-12T18:50:26.770Z,1.50
2023-05-12T18:52:54.957Z,1.60
2023-05-12T18:55:23.090Z,1.87
2023-05-12T18:57:51.181Z,2.10
2023-05-12T19:00:23.518Z,2.00
2023-05-12T19:02:51.588Z,1.80
2023-05-12T19:05:21.529Z,2.10
2023-05-12T19:07:49.724Z,2.27
2023-05-12T19:10:17.853Z,2.60
2023-05-12T19:12:45.878Z,2.90
2023-05-12T19:15:13.826Z,2.70
2023-05-12T19:17:42.166Z,3.00
2023-05-12T19:20:10.447Z,3.17
2023-05-12T19:22:40.072Z,2.77
2023-05-12T19:25:08.582Z,2.53
2023-05-12T19:27:36.541Z,2.90
2023-05-12T19:30:05.365Z,2.90
2023-05-12T19:32:33.533Z,3.30
2023-05-12T19:35:01.631Z,3.03
2023-05-12T19:37:30.100Z,3.27
2023-05-12T19:39:59.487Z,2.80
2023-05-12T19:42:27.855Z,3.37
2023-05-12T19:44:55.811Z,3.10
2023-05-12T19:47:25.749Z,3.17
2023-05-12T19:49:55.136Z,3.03
2023-05-12T19:52:24.705Z,2.23
2023-05-12T19:54:52.828Z,2.93
2023-05-12T19:57:22.795Z,2.60
2023-05-12T19:59:50.860Z,2.70
2023-05-12T20:02:18.897Z,2.73
2023-05-12T20:04:46.975Z,2.90
2023-05-12T20:07:14.981Z,2.70
2023-05-12T20:09:42.932Z,2.73
2023-05-12T20:12:11.433Z,2.30
2023-05-12T20:14:40.782Z,2.90
2023-05-12T20:17:09.393Z,2.43
2023-05-12T20:19:37.323Z,2.33
2023-05-12T20:22:05.358Z,2.00
2023-05-12T20:24:33.406Z,2.40
2023-05-12T20:27:01.385Z,2.60
2023-05-12T20:29:30.432Z,2.20
2023-05-12T20:31:59.820Z,2.47
2023-05-12T20:34:27.790Z,2.50
2023-05-12T20:36:55.889Z,2.37
2023-05-12T20:39:23.861Z,2.30
2023-05-12T20:41:51.800Z,2.20
2023-05-12T20:44:20.210Z,2.00
2023-05-12T20:46:48.320Z,2.27
2023-05-12T20:49:18.044Z,2.00
2023-05-12T20:51:46.004Z,2.30
2023-05-12T20:54:13.944Z,2.50
2023-05-12T20:56:41.883Z,2.27
2023-05-12T20:59:09.805Z,2.20
2023-05-12T21:01:37.837Z,2.20
2023-05-12T21:04:05.978Z,2.70
2023-05-12T21:06:36.017Z,2.60
2023-05-12T21:09:05.033Z,2.53
2023-05-12T21:11:33.011Z,2.53
2023-05-12T21:14:01.600Z,2.37
2023-05-12T21:16:29.649Z,2.33
2023-05-12T21:18:57.691Z,2.27
2023-05-12T21:21:25.691Z,2.83
2023-05-12T21:23:55.042Z,2.60
2023-05-12T21:26:23.000Z,2.40
2023-05-12T21:28:51.110Z,2.60
2023-05-12T21:31:19.282Z,2.60
2023-05-12T21:33:48.055Z,2.37
2023-05-12T21:36:16.244Z,2.63
2023-05-12T21:38:44.144Z,2.33
2023-05-12T21:41:13.460Z,2.40
2023-05-12T21:43:41.479Z,2.60
2023-05-12T21:46:09.431Z,2.57
2023-05-12T21:48:37.443Z,2.80
2023-05-12T21:51:05.567Z,2.20
2023-05-12T21:53:33.499Z,2.47
2023-05-12T21:56:01.482Z,2.33
2023-05-12T21:58:31.171Z,2.50
2023-05-12T22:01:00.042Z,2.30
2023-05-12T22:03:28.187Z,2.10
2023-05-12T22:05:56.981Z,2.20
2023-05-12T22:08:24.941Z,2.23
2023-05-12T22:10:52.935Z,3.10
2023-05-12T22:13:20.901Z,2.90
2023-05-12T22:15:50.300Z,3.43
2023-05-12T22:18:18.317Z,3.07
2023-05-12T22:20:46.645Z,3.50
2023-05-12T22:23:14.656Z,2.90
2023-05-12T22:25:42.616Z,3.10
2023-05-12T22:28:11.154Z,3.13
2023-05-12T22:30:39.130Z,2.50
2023-05-12T22:33:08.746Z,2.70
2023-05-12T22:35:36.983Z,2.27
2023-05-12T22:38:04.926Z,2.43
2023-05-12T22:40:33.890Z,2.77
2023-05-12T22:43:01.866Z,2.90
2023-05-12T22:45:29.822Z,2.63
2023-05-12T22:47:57.902Z,2.73
2023-05-12T22:50:27.349Z,2.40
2023-05-12T22:52:57.658Z,2.43
2023-05-12T22:55:26.540Z,2.50
2023-05-12T22:57:54.510Z,2.43
2023-05-12T23:00:23.035Z,2.37
2023-05-12T23:02:51.200Z,2.30
2023-05-12T23:05:19.219Z,2.40
2023-05-12T23:07:48.583Z,2.60
2023-05-12T23:10:16.679Z,2.50
2023-05-12T23:12:44.599Z,2.20
2023-05-12T23:15:13.028Z,2.40
2023-05-12T23:17:41.006Z,2.07
2023-05-12T23:20:09.677Z,2.37
2023-05-12T23:22:37.672Z,2.37
2023-05-12T23:25:07.458Z,2.33
2023-05-12T23:27:35.447Z,2.17
2023-05-12T23:30:03.513Z,2.50
2023-05-12T23:32:31.653Z,2.07
2023-05-12T23:34:59.653Z,2.43
2023-05-12T23:37:27.614Z,2.30
2023-05-12T23:39:55.584Z,2.40
2023-05-12T23:42:24.937Z,2.20
2023-05-12T23:44:52.839Z,2.00
2023-05-12T23:47:20.870Z,2.23
2023-05-12T23:49:48.836Z,2.63
2023-05-12T23:52:16.870Z,2.63
2023-05-12T23:54:44.809Z,2.50
2023-05-12T23:57:12.745Z,2.40
2023-05-12T23:59:42.128Z,2.53
